sensor_id;sensor_type;location;lat;lon;timestamp;P1;durP1;ratioP1;P2;durP2;ratioP2
51921;SDS011;37948;53.260;6.394;2023-04-03T00:02:12;1.77;;;1.02;;
51921;SDS011;37948;53.260;6.394;2023-04-03T00:04:38;1.65;;;1.00;;
51921;SDS011;37948;53.260;6.394;2023-04-03T00:07:04;5.22;;;1.10;;
51921;SDS011;37948;53.260;6.394;2023-04-03T00:09:30;2.58;;;1.40;;
51921;SDS011;37948;53.260;6.394;2023-04-03T00:11:56;2.20;;;0.95;;
51921;SDS011;37948;53.260;6.394;2023-04-03T00:14:21;3.90;;;1.00;;
51921;SDS011;37948;53.260;6.394;2023-04-03T00:16:47;1.15;;;0.82;;
51921;SDS011;37948;53.260;6.394;2023-04-03T00:19:12;6.93;;;1.10;;
51921;SDS011;37948;53.260;6.394;2023-04-03T00:21:38;1.60;;;1.00;;
51921;SDS011;37948;53.260;6.394;2023-04-03T00:24:05;6.53;;;1.00;;
51921;SDS011;37948;53.260;6.394;2023-04-03T00:26:30;2.67;;;1.10;;
51921;SDS011;37948;53.260;6.394;2023-04-03T00:28:56;2.67;;;1.00;;
51921;SDS011;37948;53.260;6.394;2023-04-03T00:31:22;1.55;;;1.17;;
51921;SDS011;37948;53.260;6.394;2023-04-03T00:33:47;1.70;;;1.00;;
51921;SDS011;37948;53.260;6.394;2023-04-03T00:36:13;3.00;;;1.52;;
51921;SDS011;37948;53.260;6.394;2023-04-03T00:38:39;1.75;;;1.40;;
51921;SDS011;37948;53.260;6.394;2023-04-03T00:41:05;7.97;;;1.80;;
51921;SDS011;37948;53.260;6.394;2023-04-03T00:43:31;1.88;;;1.40;;
51921;SDS011;37948;53.260;6.394;2023-04-03T00:45:57;2.90;;;1.30;;
51921;SDS011;37948;53.260;6.394;2023-04-03T00:50:52;2.67;;;0.85;;
51921;SDS011;37948;53.260;6.394;2023-04-03T00:53:19;1.10;;;1.00;;
51921;SDS011;37948;53.260;6.394;2023-04-03T00:55:49;1.05;;;0.65;;
51921;SDS011;37948;53.260;6.394;2023-04-03T00:58:19;1.73;;;0.85;;
51921;SDS011;37948;53.260;6.394;2023-04-03T01:00:48;2.05;;;1.08;;
51921;SDS011;37948;53.260;6.394;2023-04-03T01:03:21;1.98;;;1.50;;
51921;SDS011;37948;53.260;6.394;2023-04-03T01:05:47;3.33;;;1.83;;
51921;SDS011;37948;53.260;6.394;2023-04-03T01:08:12;1.38;;;1.00;;
51921;SDS011;37948;53.260;6.394;2023-04-03T01:10:38;1.92;;;1.02;;
51921;SDS011;37948;53.260;6.394;2023-04-03T01:13:17;1.48;;;0.80;;
51921;SDS011;37948;53.260;6.394;2023-04-03T01:15:44;1.08;;;0.90;;
51921;SDS011;37948;53.260;6.394;2023-04-03T01:18:10;4.88;;;1.20;;
51921;SDS011;37948;53.260;6.394;2023-04-03T01:25:47;2.33;;;0.93;;
51921;SDS011;37948;53.260;6.394;2023-04-03T01:28:21;2.58;;;0.98;;
51921;SDS011;37948;53.260;6.394;2023-04-03T01:30:51;2.95;;;0.98;;
51921;SDS011;37948;53.260;6.394;2023-04-03T01:33:23;1.05;;;0.80;;
51921;SDS011;37948;53.260;6.394;2023-04-03T01:35:49;1.95;;;1.10;;
51921;SDS011;37948;53.260;6.394;2023-04-03T01:38:14;1.17;;;1.05;;
51921;SDS011;37948;53.260;6.394;2023-04-03T01:40:41;1.55;;;0.82;;
51921;SDS011;37948;53.260;6.394;2023-04-03T01:43:06;1.83;;;1.02;;
51921;SDS011;37948;53.260;6.394;2023-04-03T01:45:32;1.27;;;0.88;;
51921;SDS011;37948;53.260;6.394;2023-04-03T01:47:58;1.42;;;1.15;;
51921;SDS011;37948;53.260;6.394;2023-04-03T01:50:23;2.55;;;1.10;;
51921;SDS011;37948;53.260;6.394;2023-04-03T01:52:49;4.22;;;1.10;;
51921;SDS011;37948;53.260;6.394;2023-04-03T01:55:14;1.00;;;0.90;;
51921;SDS011;37948;53.260;6.394;2023-04-03T01:57:40;1.65;;;0.80;;
51921;SDS011;37948;53.260;6.394;2023-04-03T02:00:06;3.63;;;0.80;;
51921;SDS011;37948;53.260;6.394;2023-04-03T02:02:32;1.52;;;1.00;;
51921;SDS011;37948;53.260;6.394;2023-04-03T02:04:58;1.40;;;1.00;;
51921;SDS011;37948;53.260;6.394;2023-04-03T02:07:24;4.90;;;1.13;;
51921;SDS011;37948;53.260;6.394;2023-04-03T02:09:49;1.98;;;0.85;;
51921;SDS011;37948;53.260;6.394;2023-04-03T02:12:15;2.20;;;0.90;;
51921;SDS011;37948;53.260;6.394;2023-04-03T02:14:41;4.30;;;1.10;;
51921;SDS011;37948;53.260;6.394;2023-04-03T02:17:07;3.15;;;0.85;;
51921;SDS011;37948;53.260;6.394;2023-04-03T02:19:34;2.60;;;0.95;;
51921;SDS011;37948;53.260;6.394;2023-04-03T02:22:00;5.55;;;1.15;;
51921;SDS011;37948;53.260;6.394;2023-04-03T02:24:27;2.22;;;1.10;;
51921;SDS011;37948;53.260;6.394;2023-04-03T02:26:52;4.97;;;1.00;;
51921;SDS011;37948;53.260;6.394;2023-04-03T02:29:18;3.70;;;1.30;;
51921;SDS011;37948;53.260;6.394;2023-04-03T02:31:44;3.75;;;1.30;;
51921;SDS011;37948;53.260;6.394;2023-04-03T02:34:10;2.83;;;1.10;;
51921;SDS011;37948;53.260;6.394;2023-04-03T02:36:36;3.83;;;1.30;;
51921;SDS011;37948;53.260;6.394;2023-04-03T02:39:02;2.58;;;1.10;;
51921;SDS011;37948;53.260;6.394;2023-04-03T02:41:28;4.70;;;2.78;;
51921;SDS011;37948;53.260;6.394;2023-04-03T02:43:59;3.50;;;1.15;;
51921;SDS011;37948;53.260;6.394;2023-04-03T02:46:26;2.60;;;1.70;;
51921;SDS011;37948;53.260;6.394;2023-04-03T02:48:52;3.35;;;1.17;;
51921;SDS011;37948;53.260;6.394;2023-04-03T02:51:17;4.30;;;1.63;;
51921;SDS011;37948;53.260;6.394;2023-04-03T02:53:43;3.40;;;1.95;;
51921;SDS011;37948;53.260;6.394;2023-04-03T02:56:08;2.05;;;1.20;;
51921;SDS011;37948;53.260;6.394;2023-04-03T02:58:34;3.60;;;1.00;;
51921;SDS011;37948;53.260;6.394;2023-04-03T03:01:00;3.92;;;1.40;;
51921;SDS011;37948;53.260;6.394;2023-04-03T03:03:26;7.13;;;1.65;;
51921;SDS011;37948;53.260;6.394;2023-04-03T03:06:00;3.22;;;1.30;;
51921;SDS011;37948;53.260;6.394;2023-04-03T03:08:27;6.32;;;1.75;;
51921;SDS011;37948;53.260;6.394;2023-04-03T03:10:53;2.40;;;1.10;;
51921;SDS011;37948;53.260;6.394;2023-04-03T03:13:19;5.88;;;1.75;;
51921;SDS011;37948;53.260;6.394;2023-04-03T03:15:45;5.47;;;1.50;;
51921;SDS011;37948;53.260;6.394;2023-04-03T03:18:10;4.18;;;1.35;;
51921;SDS011;37948;53.260;6.394;2023-04-03T03:20:36;5.75;;;1.50;;
51921;SDS011;37948;53.260;6.394;2023-04-03T03:23:01;4.05;;;1.13;;
51921;SDS011;37948;53.260;6.394;2023-04-03T03:25:27;5.00;;;1.67;;
51921;SDS011;37948;53.260;6.394;2023-04-03T03:27:53;3.92;;;1.20;;
51921;SDS011;37948;53.260;6.394;2023-04-03T03:30:18;6.18;;;1.92;;
51921;SDS011;37948;53.260;6.394;2023-04-03T03:32:44;4.35;;;1.40;;
51921;SDS011;37948;53.260;6.394;2023-04-03T03:35:10;4.20;;;1.48;;
51921;SDS011;37948;53.260;6.394;2023-04-03T03:37:36;2.92;;;1.73;;
51921;SDS011;37948;53.260;6.394;2023-04-03T03:40:01;4.22;;;1.50;;
51921;SDS011;37948;53.260;6.394;2023-04-03T03:42:27;3.45;;;1.50;;
51921;SDS011;37948;53.260;6.394;2023-04-03T03:44:53;3.17;;;1.17;;
51921;SDS011;37948;53.260;6.394;2023-04-03T03:47:18;3.33;;;1.75;;
51921;SDS011;37948;53.260;6.394;2023-04-03T03:49:44;5.80;;;1.52;;
51921;SDS011;37948;53.260;6.394;2023-04-03T03:52:09;3.75;;;1.95;;
51921;SDS011;37948;53.260;6.394;2023-04-03T03:54:36;5.20;;;1.73;;
51921;SDS011;37948;53.260;6.394;2023-04-03T03:57:02;5.57;;;1.40;;
51921;SDS011;37948;53.260;6.394;2023-04-03T03:59:28;4.53;;;1.58;;
51921;SDS011;37948;53.260;6.394;2023-04-03T04:01:53;2.28;;;1.30;;
51921;SDS011;37948;53.260;6.394;2023-04-03T04:04:22;5.13;;;1.80;;
51921;SDS011;37948;53.260;6.394;2023-04-03T04:06:48;6.38;;;1.88;;
51921;SDS011;37948;53.260;6.394;2023-04-03T04:09:13;3.33;;;1.83;;
51921;SDS011;37948;53.260;6.394;2023-04-03T04:11:42;4.80;;;1.70;;
51921;SDS011;37948;53.260;6.394;2023-04-03T04:14:08;7.43;;;1.88;;
51921;SDS011;37948;53.260;6.394;2023-04-03T04:16:38;4.15;;;2.05;;
51921;SDS011;37948;53.260;6.394;2023-04-03T04:19:04;3.95;;;2.10;;
51921;SDS011;37948;53.260;6.394;2023-04-03T04:21:29;8.35;;;2.30;;
51921;SDS011;37948;53.260;6.394;2023-04-03T04:23:55;3.28;;;2.00;;
51921;SDS011;37948;53.260;6.394;2023-04-03T04:26:20;3.53;;;2.28;;
51921;SDS011;37948;53.260;6.394;2023-04-03T04:28:46;4.57;;;1.40;;
51921;SDS011;37948;53.260;6.394;2023-04-03T04:31:12;2.55;;;1.63;;
51921;SDS011;37948;53.260;6.394;2023-04-03T04:33:37;6.55;;;1.42;;
51921;SDS011;37948;53.260;6.394;2023-04-03T04:36:03;3.38;;;1.65;;
51921;SDS011;37948;53.260;6.394;2023-04-03T04:38:29;3.85;;;1.70;;
51921;SDS011;37948;53.260;6.394;2023-04-03T04:40:54;6.85;;;1.80;;
51921;SDS011;37948;53.260;6.394;2023-04-03T04:43:20;5.47;;;2.13;;
51921;SDS011;37948;53.260;6.394;2023-04-03T04:45:46;4.15;;;1.65;;
51921;SDS011;37948;53.260;6.394;2023-04-03T04:48:11;3.80;;;1.67;;
51921;SDS011;37948;53.260;6.394;2023-04-03T04:50:37;6.82;;;1.70;;
51921;SDS011;37948;53.260;6.394;2023-04-03T04:53:03;5.43;;;1.92;;
51921;SDS011;37948;53.260;6.394;2023-04-03T04:55:29;3.00;;;1.85;;
51921;SDS011;37948;53.260;6.394;2023-04-03T04:57:54;5.30;;;1.75;;
51921;SDS011;37948;53.260;6.394;2023-04-03T05:00:20;4.65;;;2.08;;
51921;SDS011;37948;53.260;6.394;2023-04-03T05:02:46;7.88;;;2.13;;
51921;SDS011;37948;53.260;6.394;2023-04-03T05:05:12;3.90;;;1.98;;
51921;SDS011;37948;53.260;6.394;2023-04-03T05:07:37;7.45;;;1.83;;
51921;SDS011;37948;53.260;6.394;2023-04-03T05:10:03;8.75;;;1.80;;
51921;SDS011;37948;53.260;6.394;2023-04-03T05:12:29;5.15;;;2.15;;
51921;SDS011;37948;53.260;6.394;2023-04-03T05:14:55;5.38;;;2.13;;
51921;SDS011;37948;53.260;6.394;2023-04-03T05:17:20;4.80;;;1.95;;
51921;SDS011;37948;53.260;6.394;2023-04-03T05:19:46;6.05;;;2.33;;
51921;SDS011;37948;53.260;6.394;2023-04-03T05:22:11;4.55;;;2.40;;
51921;SDS011;37948;53.260;6.394;2023-04-03T05:24:37;9.13;;;3.08;;
51921;SDS011;37948;53.260;6.394;2023-04-03T05:27:03;7.75;;;2.70;;
51921;SDS011;37948;53.260;6.394;2023-04-03T05:29:29;7.15;;;2.67;;
51921;SDS011;37948;53.260;6.394;2023-04-03T05:31:54;8.75;;;2.85;;
51921;SDS011;37948;53.260;6.394;2023-04-03T05:34:20;5.82;;;2.55;;
51921;SDS011;37948;53.260;6.394;2023-04-03T05:36:46;3.55;;;2.13;;
51921;SDS011;37948;53.260;6.394;2023-04-03T05:39:11;5.15;;;2.15;;
51921;SDS011;37948;53.260;6.394;2023-04-03T05:41:37;6.82;;;2.35;;
51921;SDS011;37948;53.260;6.394;2023-04-03T05:44:02;2.65;;;1.98;;
51921;SDS011;37948;53.260;6.394;2023-04-03T05:46:28;4.18;;;2.65;;
51921;SDS011;37948;53.260;6.394;2023-04-03T05:48:53;5.00;;;2.22;;
51921;SDS011;37948;53.260;6.394;2023-04-03T05:51:21;4.85;;;1.80;;
51921;SDS011;37948;53.260;6.394;2023-04-03T05:53:56;11.73;;;2.30;;
51921;SDS011;37948;53.260;6.394;2023-04-03T05:56:39;4.78;;;2.30;;
51921;SDS011;37948;53.260;6.394;2023-04-03T05:59:04;3.38;;;2.00;;
51921;SDS011;37948;53.260;6.394;2023-04-03T06:01:30;5.15;;;1.90;;
51921;SDS011;37948;53.260;6.394;2023-04-03T06:03:56;7.30;;;3.13;;
51921;SDS011;37948;53.260;6.394;2023-04-03T06:06:23;5.53;;;2.20;;
51921;SDS011;37948;53.260;6.394;2023-04-03T06:08:49;4.10;;;2.10;;
51921;SDS011;37948;53.260;6.394;2023-04-03T06:11:15;5.43;;;2.20;;
51921;SDS011;37948;53.260;6.394;2023-04-03T06:13:41;11.80;;;2.00;;
51921;SDS011;37948;53.260;6.394;2023-04-03T06:16:08;5.97;;;2.40;;
51921;SDS011;37948;53.260;6.394;2023-04-03T06:18:40;6.03;;;2.63;;
51921;SDS011;37948;53.260;6.394;2023-04-03T06:21:06;2.60;;;1.63;;
51921;SDS011;37948;53.260;6.394;2023-04-03T06:23:32;5.15;;;1.88;;
51921;SDS011;37948;53.260;6.394;2023-04-03T06:25:58;4.90;;;2.10;;
51921;SDS011;37948;53.260;6.394;2023-04-03T06:28:24;4.63;;;2.22;;
51921;SDS011;37948;53.260;6.394;2023-04-03T06:30:50;5.22;;;2.35;;
51921;SDS011;37948;53.260;6.394;2023-04-03T06:33:16;3.10;;;2.10;;
51921;SDS011;37948;53.260;6.394;2023-04-03T06:35:41;6.05;;;2.45;;
51921;SDS011;37948;53.260;6.394;2023-04-03T06:38:07;4.95;;;1.88;;
51921;SDS011;37948;53.260;6.394;2023-04-03T06:40:34;4.55;;;2.20;;
51921;SDS011;37948;53.260;6.394;2023-04-03T06:43:00;8.73;;;2.67;;
51921;SDS011;37948;53.260;6.394;2023-04-03T06:45:26;4.10;;;1.95;;
51921;SDS011;37948;53.260;6.394;2023-04-03T06:47:52;6.10;;;2.42;;
51921;SDS011;37948;53.260;6.394;2023-04-03T06:50:18;5.82;;;2.45;;
51921;SDS011;37948;53.260;6.394;2023-04-03T06:52:44;23.30;;;4.55;;
51921;SDS011;37948;53.260;6.394;2023-04-03T06:55:10;5.13;;;2.42;;
51921;SDS011;37948;53.260;6.394;2023-04-03T06:57:36;5.93;;;2.70;;
51921;SDS011;37948;53.260;6.394;2023-04-03T07:00:02;4.90;;;2.83;;
51921;SDS011;37948;53.260;6.394;2023-04-03T07:02:29;9.88;;;3.38;;
51921;SDS011;37948;53.260;6.394;2023-04-03T07:04:55;6.22;;;2.60;;
51921;SDS011;37948;53.260;6.394;2023-04-03T07:07:21;5.55;;;2.83;;
51921;SDS011;37948;53.260;6.394;2023-04-03T07:09:47;5.90;;;2.55;;
51921;SDS011;37948;53.260;6.394;2023-04-03T07:12:13;4.72;;;2.53;;
51921;SDS011;37948;53.260;6.394;2023-04-03T07:14:39;4.40;;;2.40;;
51921;SDS011;37948;53.260;6.394;2023-04-03T07:17:04;8.75;;;2.47;;
51921;SDS011;37948;53.260;6.394;2023-04-03T07:19:30;4.20;;;2.10;;
51921;SDS011;37948;53.260;6.394;2023-04-03T07:21:56;6.55;;;2.78;;
51921;SDS011;37948;53.260;6.394;2023-04-03T07:24:22;7.65;;;2.45;;
51921;SDS011;37948;53.260;6.394;2023-04-03T07:26:51;9.25;;;3.15;;
51921;SDS011;37948;53.260;6.394;2023-04-03T07:29:17;7.03;;;2.30;;
51921;SDS011;37948;53.260;6.394;2023-04-03T07:31:43;7.82;;;2.40;;
51921;SDS011;37948;53.260;6.394;2023-04-03T07:34:09;4.72;;;2.00;;
51921;SDS011;37948;53.260;6.394;2023-04-03T07:36:36;4.25;;;2.03;;
51921;SDS011;37948;53.260;6.394;2023-04-03T07:39:02;7.85;;;3.38;;
51921;SDS011;37948;53.260;6.394;2023-04-03T07:41:28;4.25;;;2.22;;
51921;SDS011;37948;53.260;6.394;2023-04-03T07:43:54;4.93;;;2.20;;
51921;SDS011;37948;53.260;6.394;2023-04-03T07:46:21;4.95;;;2.40;;
51921;SDS011;37948;53.260;6.394;2023-04-03T07:48:47;9.77;;;1.88;;
51921;SDS011;37948;53.260;6.394;2023-04-03T07:51:12;10.13;;;1.90;;
51921;SDS011;37948;53.260;6.394;2023-04-03T07:53:38;4.05;;;1.92;;
51921;SDS011;37948;53.260;6.394;2023-04-03T07:56:04;6.45;;;1.65;;
51921;SDS011;37948;53.260;6.394;2023-04-03T07:58:30;6.47;;;1.80;;
51921;SDS011;37948;53.260;6.394;2023-04-03T08:00:56;5.82;;;2.20;;
51921;SDS011;37948;53.260;6.394;2023-04-03T08:03:22;7.90;;;2.13;;
51921;SDS011;37948;53.260;6.394;2023-04-03T08:05:48;2.70;;;1.63;;
51921;SDS011;37948;53.260;6.394;2023-04-03T08:08:15;4.72;;;2.22;;
51921;SDS011;37948;53.260;6.394;2023-04-03T08:10:43;4.72;;;2.17;;
51921;SDS011;37948;53.260;6.394;2023-04-03T08:13:12;9.75;;;3.58;;
51921;SDS011;37948;53.260;6.394;2023-04-03T08:15:38;7.28;;;1.98;;
51921;SDS011;37948;53.260;6.394;2023-04-03T08:18:04;7.18;;;2.00;;
51921;SDS011;37948;53.260;6.394;2023-04-03T08:20:29;7.10;;;1.83;;
51921;SDS011;37948;53.260;6.394;2023-04-03T08:22:55;1.77;;;1.20;;
51921;SDS011;37948;53.260;6.394;2023-04-03T08:25:21;2.95;;;1.38;;
51921;SDS011;37948;53.260;6.394;2023-04-03T08:27:47;4.63;;;2.03;;
51921;SDS011;37948;53.260;6.394;2023-04-03T08:30:13;7.80;;;1.60;;
51921;SDS011;37948;53.260;6.394;2023-04-03T08:32:39;3.63;;;1.67;;
51921;SDS011;37948;53.260;6.394;2023-04-03T08:35:07;3.55;;;1.48;;
51921;SDS011;37948;53.260;6.394;2023-04-03T08:37:36;5.97;;;1.75;;
51921;SDS011;37948;53.260;6.394;2023-04-03T08:40:04;10.10;;;2.28;;
51921;SDS011;37948;53.260;6.394;2023-04-03T08:42:42;11.32;;;1.95;;
51921;SDS011;37948;53.260;6.394;2023-04-03T08:45:36;4.15;;;1.50;;
51921;SDS011;37948;53.260;6.394;2023-04-03T08:48:13;6.60;;;1.77;;
51921;SDS011;37948;53.260;6.394;2023-04-03T08:50:45;2.00;;;1.17;;
51921;SDS011;37948;53.260;6.394;2023-04-03T08:53:18;4.78;;;1.30;;
51921;SDS011;37948;53.260;6.394;2023-04-03T08:55:50;8.30;;;1.52;;
51921;SDS011;37948;53.260;6.394;2023-04-03T08:58:19;7.82;;;1.05;;
51921;SDS011;37948;53.260;6.394;2023-04-03T09:00:51;5.65;;;1.50;;
51921;SDS011;37948;53.260;6.394;2023-04-03T09:03:22;5.05;;;1.13;;
51921;SDS011;37948;53.260;6.394;2023-04-03T09:08:46;3.45;;;1.65;;
51921;SDS011;37948;53.260;6.394;2023-04-03T09:12:06;3.42;;;1.50;;
51921;SDS011;37948;53.260;6.394;2023-04-03T09:17:24;3.03;;;1.27;;
51921;SDS011;37948;53.260;6.394;2023-04-03T09:20:16;4.97;;;1.25;;
51921;SDS011;37948;53.260;6.394;2023-04-03T09:22:45;5.88;;;1.20;;
51921;SDS011;37948;53.260;6.394;2023-04-03T09:28:01;5.07;;;1.45;;
51921;SDS011;37948;53.260;6.394;2023-04-03T09:30:27;10.35;;;1.67;;
51921;SDS011;37948;53.260;6.394;2023-04-03T09:32:55;6.20;;;1.33;;
51921;SDS011;37948;53.260;6.394;2023-04-03T09:35:26;3.97;;;1.20;;
51921;SDS011;37948;53.260;6.394;2023-04-03T09:40:36;4.63;;;0.98;;
51921;SDS011;37948;53.260;6.394;2023-04-03T09:45:49;1.90;;;1.15;;
51921;SDS011;37948;53.260;6.394;2023-04-03T09:48:22;5.20;;;1.10;;
51921;SDS011;37948;53.260;6.394;2023-04-03T09:56:00;2.42;;;0.73;;
51921;SDS011;37948;53.260;6.394;2023-04-03T09:58:33;2.05;;;1.20;;
51921;SDS011;37948;53.260;6.394;2023-04-03T10:01:06;2.25;;;0.80;;
51921;SDS011;37948;53.260;6.394;2023-04-03T10:03:45;2.35;;;1.30;;
51921;SDS011;37948;53.260;6.394;2023-04-03T10:06:22;2.47;;;0.73;;
51921;SDS011;37948;53.260;6.394;2023-04-03T10:08:58;3.80;;;0.70;;
51921;SDS011;37948;53.260;6.394;2023-04-03T10:11:29;4.70;;;0.75;;
51921;SDS011;37948;53.260;6.394;2023-04-03T10:13:56;1.10;;;0.68;;
51921;SDS011;37948;53.260;6.394;2023-04-03T10:16:29;1.83;;;0.65;;
51921;SDS011;37948;53.260;6.394;2023-04-03T10:19:04;3.38;;;0.80;;
51921;SDS011;37948;53.260;6.394;2023-04-03T10:21:48;5.28;;;0.95;;
51921;SDS011;37948;53.260;6.394;2023-04-03T10:24:28;1.13;;;0.50;;
51921;SDS011;37948;53.260;6.394;2023-04-03T10:41:01;2.03;;;1.15;;
51921;SDS011;37948;53.260;6.394;2023-04-03T10:46:08;2.88;;;1.00;;
51921;SDS011;37948;53.260;6.394;2023-04-03T10:48:58;0.63;;;0.57;;
51921;SDS011;37948;53.260;6.394;2023-04-03T10:51:27;1.50;;;0.98;;
51921;SDS011;37948;53.260;6.394;2023-04-03T10:59:27;1.55;;;1.08;;
51921;SDS011;37948;53.260;6.394;2023-04-03T11:01:59;1.88;;;0.73;;
51921;SDS011;37948;53.260;6.394;2023-04-03T11:04:31;1.30;;;0.73;;
51921;SDS011;37948;53.260;6.394;2023-04-03T11:07:20;1.93;;;0.80;;
51921;SDS011;37948;53.260;6.394;2023-04-03T11:10:13;1.17;;;0.85;;
51921;SDS011;37948;53.260;6.394;2023-04-03T11:12:59;1.75;;;0.90;;
51921;SDS011;37948;53.260;6.394;2023-04-03T11:15:32;1.67;;;0.80;;
51921;SDS011;37948;53.260;6.394;2023-04-03T11:18:00;3.53;;;1.00;;
51921;SDS011;37948;53.260;6.394;2023-04-03T11:20:31;1.05;;;0.95;;
51921;SDS011;37948;53.260;6.394;2023-04-03T11:25:50;1.63;;;0.95;;
51921;SDS011;37948;53.260;6.394;2023-04-03T11:28:19;1.70;;;0.82;;
51921;SDS011;37948;53.260;6.394;2023-04-03T11:36:00;1.80;;;0.98;;
51921;SDS011;37948;53.260;6.394;2023-04-03T11:38:44;5.10;;;0.95;;
51921;SDS011;37948;53.260;6.394;2023-04-03T11:41:12;1.15;;;1.05;;
51921;SDS011;37948;53.260;6.394;2023-04-03T11:43:43;0.90;;;0.70;;
51921;SDS011;37948;53.260;6.394;2023-04-03T11:46:22;2.63;;;0.73;;
51921;SDS011;37948;53.260;6.394;2023-04-03T11:57:46;1.42;;;0.73;;
51921;SDS011;37948;53.260;6.394;2023-04-03T12:11:13;1.52;;;0.85;;
51921;SDS011;37948;53.260;6.394;2023-04-03T12:16:22;2.08;;;0.90;;
51921;SDS011;37948;53.260;6.394;2023-04-03T12:21:21;2.97;;;0.90;;
51921;SDS011;37948;53.260;6.394;2023-04-03T12:24:00;3.00;;;0.80;;
51921;SDS011;37948;53.260;6.394;2023-04-03T12:29:24;0.70;;;0.68;;
51921;SDS011;37948;53.260;6.394;2023-04-03T12:35:10;2.05;;;0.63;;
51921;SDS011;37948;53.260;6.394;2023-04-03T12:40:53;1.88;;;0.77;;
51921;SDS011;37948;53.260;6.394;2023-04-03T12:48:33;2.65;;;0.95;;
51921;SDS011;37948;53.260;6.394;2023-04-03T12:51:14;1.15;;;0.80;;
51921;SDS011;37948;53.260;6.394;2023-04-03T12:53:46;1.67;;;0.85;;
51921;SDS011;37948;53.260;6.394;2023-04-03T12:56:25;3.10;;;0.70;;
51921;SDS011;37948;53.260;6.394;2023-04-03T12:58:57;2.67;;;0.70;;
51921;SDS011;37948;53.260;6.394;2023-04-03T13:01:56;5.80;;;0.90;;
51921;SDS011;37948;53.260;6.394;2023-04-03T13:04:30;3.38;;;0.93;;
51921;SDS011;37948;53.260;6.394;2023-04-03T13:06:57;2.10;;;0.88;;
51921;SDS011;37948;53.260;6.394;2023-04-03T13:11:51;4.72;;;1.10;;
51921;SDS011;37948;53.260;6.394;2023-04-03T13:14:22;2.38;;;1.17;;
51921;SDS011;37948;53.260;6.394;2023-04-03T13:16:52;2.42;;;1.00;;
51921;SDS011;37948;53.260;6.394;2023-04-03T13:19:20;1.42;;;0.75;;
51921;SDS011;37948;53.260;6.394;2023-04-03T13:21:48;1.83;;;0.70;;
51921;SDS011;37948;53.260;6.394;2023-04-03T13:24:16;2.13;;;0.90;;
51921;SDS011;37948;53.260;6.394;2023-04-03T13:26:42;7.15;;;1.05;;
51921;SDS011;37948;53.260;6.394;2023-04-03T13:29:18;3.63;;;1.25;;
51921;SDS011;37948;53.260;6.394;2023-04-03T13:31:47;1.65;;;0.68;;
51921;SDS011;37948;53.260;6.394;2023-04-03T13:34:19;2.72;;;0.93;;
51921;SDS011;37948;53.260;6.394;2023-04-03T13:41:48;1.10;;;0.50;;
51921;SDS011;37948;53.260;6.394;2023-04-03T13:47:37;1.05;;;0.73;;
51921;SDS011;37948;53.260;6.394;2023-04-03T13:49:38;2.80;;;1.00;;
51921;SDS011;37948;53.260;6.394;2023-04-03T13:52:22;1.42;;;1.05;;
51921;SDS011;37948;53.260;6.394;2023-04-03T13:54:58;1.15;;;0.80;;
51921;SDS011;37948;53.260;6.394;2023-04-03T13:57:25;2.25;;;0.93;;
51921;SDS011;37948;53.260;6.394;2023-04-03T13:59:51;5.57;;;1.25;;
51921;SDS011;37948;53.260;6.394;2023-04-03T14:02:22;3.83;;;0.90;;
51921;SDS011;37948;53.260;6.394;2023-04-03T14:04:59;3.65;;;0.90;;
51921;SDS011;37948;53.260;6.394;2023-04-03T14:07:27;1.38;;;0.80;;
51921;SDS011;37948;53.260;6.394;2023-04-03T14:09:55;1.83;;;0.75;;
51921;SDS011;37948;53.260;6.394;2023-04-03T14:12:31;3.60;;;1.70;;
51921;SDS011;37948;53.260;6.394;2023-04-03T14:15:01;4.50;;;0.80;;
51921;SDS011;37948;53.260;6.394;2023-04-03T14:17:30;1.55;;;0.90;;
51921;SDS011;37948;53.260;6.394;2023-04-03T14:19:57;1.10;;;0.73;;
51921;SDS011;37948;53.260;6.394;2023-04-03T14:22:24;1.67;;;0.90;;
51921;SDS011;37948;53.260;6.394;2023-04-03T14:24:54;5.95;;;1.15;;
51921;SDS011;37948;53.260;6.394;2023-04-03T14:27:25;2.72;;;0.90;;
51921;SDS011;37948;53.260;6.394;2023-04-03T14:29:54;1.08;;;1.02;;
51921;SDS011;37948;53.260;6.394;2023-04-03T14:32:21;2.85;;;1.40;;
51921;SDS011;37948;53.260;6.394;2023-04-03T14:34:48;1.63;;;1.00;;
51921;SDS011;37948;53.260;6.394;2023-04-03T14:37:15;1.73;;;0.90;;
51921;SDS011;37948;53.260;6.394;2023-04-03T14:39:43;2.28;;;0.90;;
51921;SDS011;37948;53.260;6.394;2023-04-03T14:42:17;2.92;;;1.00;;
51921;SDS011;37948;53.260;6.394;2023-04-03T14:44:45;3.95;;;0.75;;
51921;SDS011;37948;53.260;6.394;2023-04-03T14:47:21;2.47;;;1.05;;
51921;SDS011;37948;53.260;6.394;2023-04-03T14:49:51;2.78;;;0.90;;
51921;SDS011;37948;53.260;6.394;2023-04-03T14:52:33;3.17;;;0.90;;
51921;SDS011;37948;53.260;6.394;2023-04-03T14:55:00;1.60;;;0.70;;
51921;SDS011;37948;53.260;6.394;2023-04-03T14:57:28;4.97;;;1.40;;
51921;SDS011;37948;53.260;6.394;2023-04-03T14:59:54;1.15;;;0.73;;
51921;SDS011;37948;53.260;6.394;2023-04-03T15:04:51;1.25;;;0.60;;
51921;SDS011;37948;53.260;6.394;2023-04-03T15:07:16;2.63;;;0.65;;
51921;SDS011;37948;53.260;6.394;2023-04-03T15:09:42;1.90;;;0.85;;
51921;SDS011;37948;53.260;6.394;2023-04-03T15:12:08;0.95;;;0.50;;
51921;SDS011;37948;53.260;6.394;2023-04-03T15:14:34;1.73;;;0.82;;
51921;SDS011;37948;53.260;6.394;2023-04-03T15:17:00;1.00;;;0.50;;
51921;SDS011;37948;53.260;6.394;2023-04-03T15:19:27;3.83;;;0.50;;
51921;SDS011;37948;53.260;6.394;2023-04-03T15:21:53;2.65;;;0.80;;
51921;SDS011;37948;53.260;6.394;2023-04-03T15:24:19;1.65;;;0.50;;
51921;SDS011;37948;53.260;6.394;2023-04-03T15:26:44;1.02;;;0.50;;
51921;SDS011;37948;53.260;6.394;2023-04-03T15:29:11;1.10;;;0.40;;
51921;SDS011;37948;53.260;6.394;2023-04-03T15:31:37;6.57;;;0.90;;
51921;SDS011;37948;53.260;6.394;2023-04-03T15:34:02;1.02;;;0.52;;
51921;SDS011;37948;53.260;6.394;2023-04-03T15:36:28;0.68;;;0.40;;
51921;SDS011;37948;53.260;6.394;2023-04-03T15:38:54;1.02;;;0.60;;
51921;SDS011;37948;53.260;6.394;2023-04-03T15:41:19;2.63;;;0.50;;
51921;SDS011;37948;53.260;6.394;2023-04-03T15:43:45;1.92;;;0.65;;
51921;SDS011;37948;53.260;6.394;2023-04-03T15:46:11;1.65;;;0.50;;
51921;SDS011;37948;53.260;6.394;2023-04-03T15:48:38;0.95;;;0.40;;
51921;SDS011;37948;53.260;6.394;2023-04-03T15:51:04;2.28;;;1.08;;
51921;SDS011;37948;53.260;6.394;2023-04-03T15:53:31;1.40;;;0.65;;
51921;SDS011;37948;53.260;6.394;2023-04-03T15:55:56;2.42;;;0.55;;
51921;SDS011;37948;53.260;6.394;2023-04-03T15:58:22;1.92;;;0.77;;
51921;SDS011;37948;53.260;6.394;2023-04-03T16:00:48;2.00;;;0.80;;
51921;SDS011;37948;53.260;6.394;2023-04-03T16:03:17;2.22;;;0.90;;
51921;SDS011;37948;53.260;6.394;2023-04-03T16:05:45;2.50;;;1.02;;
51921;SDS011;37948;53.260;6.394;2023-04-03T16:08:11;3.25;;;1.20;;
51921;SDS011;37948;53.260;6.394;2023-04-03T16:10:39;2.35;;;0.93;;
51921;SDS011;37948;53.260;6.394;2023-04-03T16:13:05;1.08;;;0.93;;
51921;SDS011;37948;53.260;6.394;2023-04-03T16:15:31;3.30;;;0.98;;
51921;SDS011;37948;53.260;6.394;2023-04-03T16:17:59;2.05;;;1.13;;
51921;SDS011;37948;53.260;6.394;2023-04-03T16:20:26;1.40;;;0.82;;
51921;SDS011;37948;53.260;6.394;2023-04-03T16:22:52;2.00;;;0.73;;
51921;SDS011;37948;53.260;6.394;2023-04-03T16:25:18;3.90;;;1.05;;
51921;SDS011;37948;53.260;6.394;2023-04-03T16:27:44;4.43;;;1.10;;
51921;SDS011;37948;53.260;6.394;2023-04-03T16:30:10;2.97;;;0.82;;
51921;SDS011;37948;53.260;6.394;2023-04-03T16:32:36;2.38;;;0.70;;
51921;SDS011;37948;53.260;6.394;2023-04-03T16:35:03;3.70;;;0.90;;
51921;SDS011;37948;53.260;6.394;2023-04-03T16:37:29;2.95;;;0.90;;
51921;SDS011;37948;53.260;6.394;2023-04-03T16:39:55;0.80;;;0.60;;
51921;SDS011;37948;53.260;6.394;2023-04-03T16:42:23;3.38;;;1.00;;
51921;SDS011;37948;53.260;6.394;2023-04-03T16:44:49;2.47;;;0.77;;